Overview Statistics Trail Chart Weather Telemetry Raw packets
 

This is the latest recevied weather packets stored in our database for station/object DL6DJ-15. If no packets are shown the sender has not sent any weather packets the latest 10 day(s).

<< 105 106 107 108 109 110 111 >>
Time Temp. Humidity Pressure Rain* Wind** Luminosity Snow
1787812973 26.11° C 47% 1018 hPa - - - -
1787812673 25° C 49% 1018.1 hPa - - - -
1787812373 24.44° C 51% 1018.3 hPa - - - -
1787812073 22.78° C 57% 1018.2 hPa - - - -
1787811773 21.11° C 64% 1018.1 hPa - - - -
1787811472 20° C 68% 1018.1 hPa - - - -
1787811172 18.33° C 75% 1018.1 hPa - - - -
1787810871 18.33° C 74% 1018.2 hPa - - - -
1787810571 18.33° C 74% 1018.1 hPa - - - -
1787810272 18.33° C 73% 1018.1 hPa - - - -
1787809970 18.33° C 74% 1018 hPa - - - -
1787809670 17.78° C 75% 1018 hPa - - - -
1787809369 18.33° C 74% 1017.9 hPa - - - -
1787809069 18.33° C 73% 1018 hPa - - - -
1787808768 17.78° C 79% 1018.1 hPa - - - -
1787808468 16.67° C 82% 1018 hPa - - - -
1787808168 16.67° C 83% 1018 hPa - - - -
1787807872 16.11° C 84% 1018.2 hPa - - - -
1787807567 16.11° C 85% 1018.2 hPa - - - -
1787807266 16.11° C 86% 1018.1 hPa - - - -
1787806966 15.56° C 86% 1018.1 hPa - - - -
1787806665 15.56° C 87% 1018 hPa - - - -
1787806365 15.56° C 88% 1017.8 hPa - - - -
1787806065 15.56° C 88% 1017.9 hPa - - - -
1787805765 15.56° C 88% 1017.9 hPa - - - -

* Rain since midnight (hover to see other rain measurements)
** Current wind speed in m/s (hover to see current wind gust speed)